Kirksville, MO (63501)

6:34 AM CDT on March 23, 2017 (GMT -0500)
Kirksville Missouri | | Change Station

Elev 974 ft 40.22 °N, 92.64 °W | Updated 15 seconds ago

Overcast
Overcast
39.2 °F
Feels Like 39 °F
N
3.0
Wind Variable Wind from East

Today
High -- | Low -- °F
--% Chance of Precip.
Yesterday
High -- | Low -- °F
Precip. -- in
Pressure 30.21 in
Visibility 10.0 miles
Clouds Mostly Cloudy 2700 ft
Mostly Cloudy 3500 ft
Overcast 4200 ft
Windchill 39 °F
Dew Point 29 °F
Humidity 69%
Rainfall 0.00 in
Snow Depth Not available.
7:08 AM 7:25 PM
Waning Crescent, 24% visible
SPECI KIRK 231126Z AUTO 12009KT 10SM BKN027 BKN035 OVC042 04/M02 A3021 RMK AO2 RAE00 P0000 T00441017
Pressure 30.21 in
Visibility 10.0 miles
Clouds Mostly Cloudy 2700 ft
Mostly Cloudy 3500 ft
Overcast 4200 ft
Windchill 39 °F
Dew Point 29 °F
Humidity 69%
Rainfall 0.00 in
Snow Depth Not available.
7:08 AM 7:25 PM
Waning Crescent, 24% visible
SPECI KIRK 231126Z AUTO 12009KT 10SM BKN027 BKN035 OVC042 04/M02 A3021 RMK AO2 RAE00 P0000 T00441017

Get Severe Weather Alerts

Thanks for signing up!

Be on the lookout for a verification email in your inbox.

You'll start receiving the daily forecast at 8 AM.

×

10-Day Weather Forecast

Almanac

Astronomy

Mar. 23, 2017 Rise Set
Actual Time
Civil Twilight
Nautical Twilight
Astronomical Twilight
Moon
Length of Visible Light
Length of Day
Tomorrow will be .
, % of the Moon is Illuminated

Today's Extremes

State Highs State Lows

Community

WunderPhotos

Upload Photos

1,962,540 photos uploaded!

WunderBlog® & News

Nearby

Air Quality

  Air Quality AQ Index Pollutant
Not available.

Snow Depth

Station Depth Elevation

Earthquake Activity

City Distance Mag. Time & Date
Minimum magnitude displayed is 2.5.

Earthquake Activity

City Distance Mag. Time & Date
Minimum magnitude displayed is 2.5.

Coastal Water Temperatures

Place Temperature

Stations

Nearby Weather Stations

Station Location Temp. Windchill Dew Point Humidity Wind Precip. Elev Updated Type
                   

Watches & Warnings

There are currently no watches in effect.